createdAt,value
2022-10-22T00:02:04.765Z,8.05
2022-10-22T00:04:34.608Z,9.35
2022-10-22T00:07:03.670Z,10.30
2022-10-22T00:09:31.010Z,10.27
2022-10-22T00:11:57.768Z,8.05
2022-10-22T00:14:24.659Z,8.38
2022-10-22T00:16:51.996Z,6.15
2022-10-22T00:19:18.711Z,12.18
2022-10-22T00:21:45.426Z,8.45
2022-10-22T00:24:14.133Z,7.05
2022-10-22T00:26:40.926Z,8.73
2022-10-22T00:29:07.653Z,7.63
2022-10-22T00:31:35.053Z,10.32
2022-10-22T00:34:01.785Z,7.95
2022-10-22T00:36:28.582Z,8.10
2022-10-22T00:38:55.937Z,10.65
2022-10-22T00:41:24.017Z,6.78
2022-10-22T00:43:56.286Z,7.97
2022-10-22T00:46:23.692Z,5.57
2022-10-22T00:48:51.027Z,6.78
2022-10-22T00:51:18.769Z,6.43
2022-10-22T00:53:49.668Z,11.48
2022-10-22T00:56:17.174Z,7.45
2022-10-22T00:58:48.848Z,8.52
2022-10-22T01:01:18.615Z,11.05
2022-10-22T01:03:45.401Z,9.45
2022-10-22T01:06:18.854Z,10.98
2022-10-22T01:08:54.325Z,7.60
2022-10-22T01:11:26.865Z,11.98
2022-10-22T01:14:04.414Z,7.28
2022-10-22T01:16:37.946Z,11.75
2022-10-22T01:19:25.459Z,10.35
2022-10-22T01:21:56.987Z,9.68
2022-10-22T01:24:35.504Z,11.48
2022-10-22T01:27:30.659Z,12.82
2022-10-22T01:30:02.731Z,11.02
2022-10-22T01:32:33.059Z,11.73
2022-10-22T01:35:04.202Z,7.07
2022-10-22T01:37:33.752Z,12.90
2022-10-22T01:40:02.167Z,8.77
2022-10-22T01:42:28.965Z,12.15
2022-10-22T01:44:55.667Z,8.15
2022-10-22T01:47:38.872Z,12.30
2022-10-22T01:50:23.915Z,12.43
2022-10-22T01:53:11.276Z,9.57
2022-10-22T01:55:46.651Z,15.15
2022-10-22T01:58:34.048Z,10.30
2022-10-22T02:01:06.133Z,11.82
2022-10-22T02:03:41.922Z,12.02
2022-10-22T02:06:14.274Z,13.43
2022-10-22T02:08:42.598Z,13.25
2022-10-22T02:11:11.708Z,11.48
2022-10-22T02:13:42.761Z,12.40
2022-10-22T02:16:14.850Z,11.20
2022-10-22T02:18:46.204Z,14.23
2022-10-22T02:21:14.438Z,13.73
2022-10-22T02:23:41.392Z,13.52
2022-10-22T02:26:16.261Z,13.40
2022-10-22T02:28:49.766Z,10.65
2022-10-22T02:31:22.176Z,14.13
2022-10-22T02:33:54.414Z,11.48
2022-10-22T02:36:23.359Z,13.10
2022-10-22T02:38:52.037Z,13.68
2022-10-22T02:41:19.260Z,17.90
2022-10-22T02:43:53.232Z,13.80
2022-10-22T02:46:20.633Z,11.77
2022-10-22T02:48:47.555Z,13.60
2022-10-22T02:51:16.182Z,12.60
2022-10-22T02:53:43.522Z,12.95
2022-10-22T02:56:10.264Z,10.60
2022-10-22T02:58:37.047Z,11.68
2022-10-22T03:01:04.967Z,11.20
2022-10-22T03:03:31.757Z,12.98
2022-10-22T03:05:58.451Z,10.25
2022-10-22T03:08:27.193Z,13.82
2022-10-22T03:10:53.916Z,12.73
2022-10-22T03:13:20.627Z,11.68
2022-10-22T03:15:49.174Z,12.10
2022-10-22T03:18:16.333Z,9.63
2022-10-22T03:20:43.188Z,12.63
2022-10-22T03:23:11.252Z,13.88
2022-10-22T03:25:42.812Z,13.02
2022-10-22T03:28:11.687Z,12.95
2022-10-22T03:30:38.990Z,9.68
2022-10-22T03:33:05.725Z,12.52
2022-10-22T03:35:37.414Z,18.50
2022-10-22T03:38:04.757Z,15.27
2022-10-22T03:40:31.570Z,11.27
2022-10-22T03:43:00.167Z,11.23
2022-10-22T03:45:27.563Z,11.60
2022-10-22T03:47:54.300Z,12.55
2022-10-22T03:50:21.014Z,12.65
2022-10-22T03:52:48.403Z,11.23
2022-10-22T03:55:15.122Z,11.60
2022-10-22T03:57:42.023Z,14.30
2022-10-22T04:00:11.572Z,10.68
2022-10-22T04:02:38.448Z,11.02
2022-10-22T04:05:06.071Z,12.77
2022-10-22T04:07:33.482Z,12.25
2022-10-22T04:10:00.257Z,13.63
2022-10-22T04:12:26.984Z,11.70
2022-10-22T04:14:54.362Z,14.73
2022-10-22T04:17:22.457Z,16.38
2022-10-22T04:19:49.200Z,12.93
2022-10-22T04:22:16.519Z,10.32
2022-10-22T04:24:43.302Z,12.00
2022-10-22T04:27:10.103Z,16.25
2022-10-22T04:29:37.515Z,11.63
2022-10-22T04:32:04.538Z,12.90
2022-10-22T04:34:32.613Z,13.07
2022-10-22T04:36:59.927Z,10.65
2022-10-22T04:39:26.641Z,13.43
2022-10-22T04:41:53.404Z,11.35
2022-10-22T04:44:20.736Z,10.32
2022-10-22T04:46:47.549Z,12.75
2022-10-22T04:49:14.289Z,11.90
2022-10-22T04:51:42.928Z,12.55
2022-10-22T04:54:09.631Z,11.07
2022-10-22T04:56:36.464Z,11.02
2022-10-22T04:59:05.721Z,14.60
2022-10-22T05:01:36.970Z,9.60
2022-10-22T05:04:08.749Z,13.77
2022-10-22T05:06:37.022Z,12.67
2022-10-22T05:09:07.141Z,11.75
2022-10-22T05:11:35.924Z,12.20
2022-10-22T05:14:05.610Z,12.43
2022-10-22T05:16:33.813Z,14.10
2022-10-22T05:19:02.389Z,11.23
2022-10-22T05:21:29.246Z,11.57
2022-10-22T05:23:57.205Z,15.98
2022-10-22T05:26:26.570Z,12.23
2022-10-22T05:28:53.640Z,9.88
2022-10-22T05:31:20.902Z,19.23
2022-10-22T05:33:48.398Z,11.25
2022-10-22T05:36:17.069Z,14.05
2022-10-22T05:38:44.008Z,12.75
2022-10-22T05:41:12.810Z,9.00
2022-10-22T05:43:41.024Z,11.82
2022-10-22T05:46:10.816Z,15.15
2022-10-22T05:48:38.695Z,15.27
2022-10-22T05:51:07.369Z,17.55
2022-10-22T05:53:35.558Z,13.75
2022-10-22T05:56:04.319Z,11.90
2022-10-22T05:58:31.528Z,14.18
2022-10-22T06:01:03.946Z,12.98
2022-10-22T06:03:31.273Z,12.77
2022-10-22T06:06:00.436Z,19.63
2022-10-22T06:08:27.747Z,14.55
2022-10-22T06:10:55.158Z,15.50
2022-10-22T06:13:21.855Z,11.77
2022-10-22T06:15:48.641Z,18.08
2022-10-22T06:18:17.302Z,14.90
2022-10-22T06:20:44.014Z,13.20
2022-10-22T06:23:10.737Z,15.63
2022-10-22T06:25:38.062Z,15.23
2022-10-22T06:28:04.980Z,17.08
2022-10-22T06:30:31.706Z,17.52
2022-10-22T06:32:59.135Z,11.95
2022-10-22T06:35:27.189Z,13.70
2022-10-22T06:37:53.894Z,10.33
2022-10-22T06:40:21.223Z,14.50
2022-10-22T06:42:47.927Z,15.10
2022-10-22T06:45:14.933Z,10.73
2022-10-22T06:47:42.629Z,18.95
2022-10-22T06:50:10.039Z,12.82
2022-10-22T06:52:38.106Z,12.20
2022-10-22T06:55:06.049Z,13.18
2022-10-22T06:57:32.936Z,16.58
2022-10-22T06:59:59.651Z,16.40
2022-10-22T07:02:26.969Z,16.00
2022-10-22T07:04:53.726Z,9.88
2022-10-22T07:07:20.473Z,13.57
2022-10-22T07:09:49.492Z,16.83
2022-10-22T07:12:17.386Z,10.93
2022-10-22T07:14:44.107Z,14.95
2022-10-22T07:17:11.416Z,17.65
2022-10-22T07:19:38.146Z,17.92
2022-10-22T07:22:04.879Z,11.60
2022-10-22T07:24:32.213Z,12.60
2022-10-22T07:27:00.284Z,11.88
2022-10-22T07:29:27.026Z,11.70
2022-10-22T07:31:54.477Z,14.10
2022-10-22T07:34:21.263Z,15.70
2022-10-22T07:36:48.002Z,12.05
2022-10-22T07:39:15.399Z,13.13
2022-10-22T07:41:42.147Z,11.50
2022-10-22T07:44:10.232Z,13.25
2022-10-22T07:46:37.735Z,13.05
2022-10-22T07:49:04.613Z,13.48
2022-10-22T07:51:31.386Z,10.20
2022-10-22T07:53:58.690Z,14.57
2022-10-22T07:56:25.554Z,9.95
2022-10-22T07:58:52.290Z,10.43
2022-10-22T08:01:21.043Z,10.75
2022-10-22T08:03:47.820Z,8.13
2022-10-22T08:06:15.063Z,12.50
2022-10-22T08:08:42.496Z,7.70
2022-10-22T08:11:10.462Z,10.07
2022-10-22T08:13:40.435Z,7.87
2022-10-22T08:16:10.188Z,9.60
2022-10-22T08:18:38.262Z,16.30
2022-10-22T08:21:05.313Z,10.23
2022-10-22T08:23:32.651Z,7.63
2022-10-22T08:25:59.376Z,9.02
2022-10-22T08:28:26.531Z,11.07
2022-10-22T08:30:53.829Z,8.05
2022-10-22T08:33:20.610Z,9.55
2022-10-22T08:35:52.243Z,9.65
2022-10-22T08:38:19.838Z,7.35
2022-10-22T08:43:47.185Z,5.60
2022-10-22T08:46:27.175Z,6.22
2022-10-22T08:48:57.333Z,6.45
2022-10-22T08:51:28.377Z,9.15
2022-10-22T08:54:12.961Z,9.98
2022-10-22T08:56:43.967Z,10.35
2022-10-22T08:59:16.478Z,8.32
2022-10-22T09:01:46.582Z,10.65
2022-10-22T09:04:19.183Z,10.32
2022-10-22T09:06:49.555Z,7.22
2022-10-22T09:09:20.671Z,6.45
2022-10-22T09:11:49.697Z,10.15
2022-10-22T09:14:18.872Z,7.90
2022-10-22T09:17:10.391Z,5.53
2022-10-22T09:19:45.050Z,10.80
2022-10-22T09:22:22.818Z,8.05
2022-10-22T09:24:54.863Z,7.53
2022-10-22T09:27:26.905Z,4.97
2022-10-22T09:29:53.779Z,7.07
2022-10-22T09:32:20.553Z,7.32
2022-10-22T09:34:49.891Z,11.38
2022-10-22T09:37:19.553Z,7.43
2022-10-22T09:39:50.773Z,7.95
2022-10-22T09:42:20.226Z,14.15
2022-10-22T09:47:42.503Z,9.15
2022-10-22T09:50:20.710Z,6.63
2022-10-22T09:53:00.233Z,5.70
2022-10-22T09:55:27.843Z,6.93
2022-10-22T09:57:56.655Z,7.47
2022-10-22T10:00:23.833Z,7.57
2022-10-22T10:02:54.998Z,8.05
2022-10-22T10:05:26.630Z,9.02
2022-10-22T10:07:54.695Z,12.20
2022-10-22T10:10:33.629Z,5.22
2022-10-22T10:13:12.692Z,7.50
2022-10-22T10:15:45.463Z,8.32
2022-10-22T10:18:24.604Z,8.70
2022-10-22T10:21:00.591Z,8.82
2022-10-22T10:23:35.888Z,8.52
2022-10-22T10:26:08.274Z,8.77
2022-10-22T10:28:49.668Z,6.72
2022-10-22T10:31:25.216Z,8.10
2022-10-22T10:34:02.864Z,6.97
2022-10-22T10:36:39.681Z,11.27
2022-10-22T10:39:12.600Z,10.75
2022-10-22T10:41:52.195Z,7.38
2022-10-22T10:44:45.850Z,7.20
2022-10-22T10:47:32.216Z,7.60
2022-10-22T10:50:13.933Z,6.38
2022-10-22T10:52:48.482Z,9.32
2022-10-22T10:55:25.354Z,10.82
2022-10-22T10:58:03.988Z,6.97
2022-10-22T11:00:36.068Z,14.02
2022-10-22T11:03:40.366Z,8.50
2022-10-22T11:06:10.017Z,9.77
2022-10-22T11:08:40.354Z,7.63
2022-10-22T11:11:14.859Z,9.15
2022-10-22T11:13:46.391Z,6.85
2022-10-22T11:16:20.650Z,7.45
2022-10-22T11:18:52.512Z,4.50
2022-10-22T11:21:26.962Z,6.40
2022-10-22T11:24:01.754Z,6.70
2022-10-22T11:26:37.712Z,5.72
2022-10-22T11:29:09.680Z,5.55
2022-10-22T11:31:37.528Z,6.32
2022-10-22T11:34:32.783Z,8.80
2022-10-22T11:37:00.775Z,8.60
2022-10-22T11:39:34.740Z,7.20
2022-10-22T11:42:05.039Z,8.23
2022-10-22T11:44:45.186Z,10.80
2022-10-22T11:47:19.235Z,7.28
2022-10-22T11:49:56.292Z,7.43
2022-10-22T11:52:26.765Z,8.57
2022-10-22T11:54:57.966Z,7.15
2022-10-22T11:57:35.350Z,7.05
2022-10-22T12:00:09.519Z,9.60
2022-10-22T12:02:45.855Z,8.93
2022-10-22T12:05:34.797Z,7.25
2022-10-22T12:08:22.680Z,10.73
2022-10-22T12:11:12.941Z,6.03
2022-10-22T12:14:12.658Z,10.55
2022-10-22T12:16:55.687Z,9.80
2022-10-22T12:19:30.078Z,9.23
2022-10-22T12:21:59.593Z,9.43
2022-10-22T12:24:34.049Z,8.05
2022-10-22T12:27:00.763Z,7.18
2022-10-22T12:29:32.733Z,9.40
2022-10-22T12:32:03.398Z,10.98
2022-10-22T12:34:30.712Z,8.90
2022-10-22T12:36:57.430Z,9.38
2022-10-22T12:39:26.813Z,10.23
2022-10-22T12:41:54.707Z,9.98
2022-10-22T12:44:21.554Z,7.65
2022-10-22T12:46:53.139Z,10.65
2022-10-22T12:49:31.760Z,9.10
2022-10-22T12:52:02.925Z,10.90
2022-10-22T12:54:31.874Z,6.15
2022-10-22T12:56:59.034Z,12.38
2022-10-22T12:59:28.215Z,13.00
2022-10-22T13:01:57.437Z,8.75
2022-10-22T13:04:35.378Z,11.35
2022-10-22T13:07:21.121Z,14.40
2022-10-22T13:09:58.197Z,7.65
2022-10-22T13:12:26.555Z,9.30
2022-10-22T13:14:53.510Z,10.52
2022-10-22T13:17:38.549Z,8.02
2022-10-22T13:20:20.884Z,10.20
2022-10-22T13:22:58.013Z,12.60
2022-10-22T13:25:29.354Z,8.48
2022-10-22T13:27:57.490Z,10.57
2022-10-22T13:30:26.013Z,4.75
2022-10-22T13:32:57.027Z,11.38
2022-10-22T13:35:27.253Z,9.23
2022-10-22T13:37:54.806Z,7.22
2022-10-22T13:40:21.913Z,7.95
2022-10-22T13:42:48.724Z,7.40
2022-10-22T13:45:16.960Z,10.13
2022-10-22T13:47:47.974Z,10.45
2022-10-22T13:50:18.978Z,10.77
2022-10-22T13:52:49.556Z,8.57
2022-10-22T13:55:19.892Z,11.35
2022-10-22T13:57:47.452Z,9.68
2022-10-22T14:00:17.203Z,9.45
2022-10-22T14:02:46.332Z,9.43
2022-10-22T14:05:13.596Z,7.15
2022-10-22T14:07:42.087Z,10.77
2022-10-22T14:10:18.243Z,9.10
2022-10-22T14:12:47.336Z,10.43
2022-10-22T14:15:18.710Z,9.20
2022-10-22T14:17:48.280Z,9.27
2022-10-22T14:20:18.054Z,7.70
2022-10-22T14:22:48.178Z,10.10
2022-10-22T14:25:16.406Z,9.23
2022-10-22T14:27:43.719Z,12.02
2022-10-22T14:30:15.211Z,6.40
2022-10-22T14:32:42.338Z,7.93
2022-10-22T14:35:12.495Z,8.02
2022-10-22T14:37:39.922Z,11.90
2022-10-22T14:40:11.047Z,7.93
2022-10-22T14:42:40.998Z,9.13
2022-10-22T14:45:15.532Z,8.52
2022-10-22T14:47:42.289Z,8.57
2022-10-22T14:50:09.914Z,10.82
2022-10-22T14:52:36.666Z,11.60
2022-10-22T14:55:04.051Z,11.88
2022-10-22T14:57:32.726Z,11.87
2022-10-22T14:59:59.483Z,9.57
2022-10-22T15:02:26.331Z,11.23
2022-10-22T15:04:53.716Z,14.48
2022-10-22T15:07:20.516Z,6.25
2022-10-22T15:09:47.244Z,10.50
2022-10-22T15:12:14.589Z,9.57
2022-10-22T15:14:42.740Z,10.80
2022-10-22T15:17:09.481Z,13.13
2022-10-22T15:19:36.834Z,7.90
2022-10-22T15:22:03.621Z,10.05
2022-10-22T15:24:30.339Z,10.25
2022-10-22T15:26:57.702Z,9.70
2022-10-22T15:29:24.458Z,6.57
2022-10-22T15:31:55.528Z,9.90
2022-10-22T15:34:25.145Z,12.18
2022-10-22T15:36:54.051Z,9.27
2022-10-22T15:39:20.870Z,11.75
2022-10-22T15:41:48.448Z,10.45
2022-10-22T15:44:16.953Z,12.15
2022-10-22T15:46:43.840Z,9.07
2022-10-22T15:49:13.334Z,14.10
2022-10-22T15:51:40.502Z,9.20
2022-10-22T15:54:10.149Z,13.57
2022-10-22T15:56:37.704Z,16.88
2022-10-22T15:59:04.472Z,16.45
2022-10-22T16:01:32.962Z,12.10
2022-10-22T16:04:00.637Z,11.85
2022-10-22T16:06:30.139Z,11.25
2022-10-22T16:08:58.685Z,14.40
2022-10-22T16:11:27.207Z,13.40
2022-10-22T16:13:54.091Z,9.60
2022-10-22T16:16:21.798Z,10.18
2022-10-22T16:18:49.191Z,12.15
2022-10-22T16:21:16.026Z,13.30
2022-10-22T16:23:44.322Z,16.98
2022-10-22T16:28:38.467Z,14.18
2022-10-22T16:31:06.991Z,16.55
2022-10-22T16:33:41.368Z,13.88
2022-10-22T16:36:11.983Z,18.88
2022-10-22T16:38:39.411Z,19.70
2022-10-22T16:41:12.131Z,20.60
2022-10-22T16:43:39.771Z,19.05
2022-10-22T16:46:07.254Z,20.88
2022-10-22T16:48:34.063Z,18.42
2022-10-22T16:51:06.633Z,20.35
2022-10-22T16:56:01.822Z,16.75
2022-10-22T16:58:30.122Z,23.38
2022-10-22T17:00:56.899Z,18.77
2022-10-22T17:03:27.443Z,19.95
2022-10-22T17:05:58.188Z,19.52
2022-10-22T17:08:25.532Z,19.50
2022-10-22T17:10:52.290Z,15.40
2022-10-22T17:13:19.038Z,19.17
2022-10-22T17:15:47.738Z,17.10
2022-10-22T17:18:15.098Z,18.20
2022-10-22T17:20:42.114Z,21.98
2022-10-22T17:23:10.005Z,23.05
2022-10-22T17:25:41.900Z,25.58
2022-10-22T17:28:08.757Z,17.70
2022-10-22T17:30:36.111Z,23.98
2022-10-22T17:33:04.498Z,23.58
2022-10-22T17:35:31.312Z,21.17
2022-10-22T17:37:58.668Z,23.67
2022-10-22T17:40:25.437Z,19.77
2022-10-22T17:42:53.674Z,17.83
2022-10-22T17:45:21.001Z,17.60
2022-10-22T17:47:47.742Z,57.72
2022-10-22T17:50:15.950Z,26.08
2022-10-22T17:52:43.670Z,27.10
2022-10-22T17:55:12.374Z,27.90
2022-10-22T17:57:39.207Z,27.05
2022-10-22T18:00:07.743Z,24.67
2022-10-22T18:02:34.640Z,16.60
2022-10-22T18:05:01.424Z,17.05
2022-10-22T18:07:30.098Z,20.17
2022-10-22T18:09:59.703Z,24.43
2022-10-22T18:12:26.537Z,25.27
2022-10-22T18:14:54.011Z,23.10
2022-10-22T18:17:20.697Z,22.73
2022-10-22T18:19:48.472Z,25.70
2022-10-22T18:22:15.788Z,19.38
2022-10-22T18:24:43.835Z,19.25
2022-10-22T18:27:10.555Z,17.43
2022-10-22T18:29:37.883Z,19.75
2022-10-22T18:32:05.312Z,21.33
2022-10-22T18:34:34.202Z,20.40
2022-10-22T18:37:01.548Z,15.40
2022-10-22T18:39:28.281Z,21.90
2022-10-22T18:41:56.323Z,19.80
2022-10-22T18:44:23.668Z,16.77
2022-10-22T18:46:50.774Z,18.95
2022-10-22T18:49:18.913Z,17.27
2022-10-22T18:51:46.844Z,19.35
2022-10-22T18:54:25.563Z,19.83
2022-10-22T18:56:53.486Z,17.38
2022-10-22T18:59:23.340Z,20.77
2022-10-22T19:01:51.374Z,21.38
2022-10-22T19:04:18.843Z,22.17
2022-10-22T19:06:46.155Z,18.95
2022-10-22T19:09:13.424Z,18.05
2022-10-22T19:11:40.942Z,17.50
2022-10-22T19:14:07.673Z,14.23
2022-10-22T19:16:35.787Z,16.85
2022-10-22T19:19:05.219Z,20.48
2022-10-22T19:21:32.816Z,14.80
2022-10-22T19:24:00.546Z,16.42
2022-10-22T19:26:29.553Z,18.27
2022-10-22T19:28:58.167Z,26.42
2022-10-22T19:31:26.529Z,30.48
2022-10-22T19:36:23.793Z,25.33
2022-10-22T19:38:50.571Z,19.60
2022-10-22T19:41:19.654Z,18.30
2022-10-22T19:43:49.346Z,17.45
2022-10-22T19:46:16.739Z,23.35
2022-10-22T19:51:19.482Z,19.67
2022-10-22T19:53:48.059Z,18.20
2022-10-22T19:56:17.790Z,20.58
2022-10-22T19:58:44.866Z,16.52
2022-10-22T20:01:14.078Z,17.50
2022-10-22T20:03:41.446Z,21.70
2022-10-22T20:06:09.922Z,17.60
2022-10-22T20:11:07.697Z,15.77
2022-10-22T20:13:34.493Z,17.50
2022-10-22T20:16:02.151Z,15.93
2022-10-22T20:18:28.886Z,18.67
2022-10-22T20:20:55.610Z,18.80
2022-10-22T20:23:22.989Z,16.90
2022-10-22T20:25:51.093Z,18.05
2022-10-22T20:28:18.737Z,17.00
2022-10-22T20:30:46.535Z,18.08
2022-10-22T20:33:13.847Z,16.92
2022-10-22T20:35:40.556Z,20.63
2022-10-22T20:38:12.465Z,17.23
2022-10-22T20:40:39.251Z,16.60
2022-10-22T20:43:10.518Z,16.70
2022-10-22T20:45:39.669Z,23.98
2022-10-22T20:48:06.774Z,20.35
2022-10-22T20:50:33.671Z,20.52
2022-10-22T20:53:00.974Z,15.80
2022-10-22T20:55:27.856Z,19.33
2022-10-22T20:57:54.934Z,16.58
2022-10-22T21:00:23.669Z,22.08
2022-10-22T21:02:50.408Z,23.80
2022-10-22T21:05:17.311Z,23.15
2022-10-22T21:07:45.127Z,17.15
2022-10-22T21:10:11.861Z,19.92
2022-10-22T21:12:38.566Z,20.70
2022-10-22T21:15:10.256Z,18.52
2022-10-22T21:17:40.630Z,19.40
2022-10-22T21:20:08.608Z,18.48
2022-10-22T21:22:35.322Z,18.63
2022-10-22T21:25:02.118Z,22.25
2022-10-22T21:27:29.502Z,22.20
2022-10-22T21:29:56.220Z,19.75
2022-10-22T21:32:22.928Z,23.27
2022-10-22T21:34:51.723Z,23.83
2022-10-22T21:37:18.473Z,18.38
2022-10-22T21:39:45.204Z,18.10
2022-10-22T21:42:14.948Z,18.25
2022-10-22T21:44:41.657Z,18.80
2022-10-22T21:47:08.378Z,18.35
2022-10-22T21:49:35.675Z,16.67
2022-10-22T21:52:03.752Z,17.30
2022-10-22T21:54:30.491Z,16.33
2022-10-22T21:56:57.806Z,17.25
2022-10-22T21:59:24.567Z,18.17
2022-10-22T22:01:51.283Z,18.38
2022-10-22T22:04:18.613Z,16.48
2022-10-22T22:06:45.322Z,19.90
2022-10-22T22:09:13.480Z,18.08
2022-10-22T22:11:40.944Z,19.85
2022-10-22T22:14:07.729Z,20.50
2022-10-22T22:16:35.139Z,22.15
2022-10-22T22:19:05.392Z,20.47
2022-10-22T22:21:32.429Z,16.98
2022-10-22T22:23:59.258Z,18.23
2022-10-22T22:26:30.193Z,20.75
2022-10-22T22:28:58.054Z,17.60
2022-10-22T22:31:27.319Z,20.10
2022-10-22T22:33:58.575Z,17.80
2022-10-22T22:36:25.363Z,19.05
2022-10-22T22:38:54.514Z,24.40
2022-10-22T22:41:21.936Z,18.08
2022-10-22T22:43:50.277Z,19.10
2022-10-22T22:46:17.015Z,19.30
2022-10-22T22:48:44.711Z,21.25
2022-10-22T22:51:11.486Z,18.90
2022-10-22T22:53:38.222Z,18.02
2022-10-22T22:56:08.275Z,16.63
2022-10-22T22:58:35.702Z,17.63
2022-10-22T23:01:12.317Z,20.67
2022-10-22T23:03:39.844Z,21.15
2022-10-22T23:06:07.227Z,17.58
2022-10-22T23:08:34.399Z,20.98
2022-10-22T23:11:03.274Z,18.67
2022-10-22T23:13:29.977Z,20.30
2022-10-22T23:15:56.823Z,18.33
2022-10-22T23:18:25.681Z,17.60
2022-10-22T23:20:52.804Z,16.13
2022-10-22T23:23:19.514Z,18.17
2022-10-22T23:25:46.887Z,18.67
2022-10-22T23:28:13.650Z,22.20
2022-10-22T23:30:43.983Z,23.33
2022-10-22T23:33:11.790Z,17.05
2022-10-22T23:35:42.962Z,21.38
2022-10-22T23:38:09.697Z,18.85
2022-10-22T23:40:37.414Z,21.50
2022-10-22T23:43:04.685Z,19.10
2022-10-22T23:45:34.247Z,19.58
2022-10-22T23:48:01.642Z,15.77
2022-10-22T23:50:28.390Z,17.60
2022-10-22T23:52:56.494Z,17.38
2022-10-22T23:55:23.919Z,16.55
2022-10-22T23:57:50.643Z,19.23
